sensor_id;sensor_type;location;lat;lon;timestamp;P1;durP1;ratioP1;P2;durP2;ratioP2
5042;SDS011;2540;50.928;6.856;2023-12-20T00:00:55;21.50;;;11.47;;
5042;SDS011;2540;50.928;6.856;2023-12-20T00:03:20;18.27;;;9.87;;
5042;SDS011;2540;50.928;6.856;2023-12-20T00:05:46;18.60;;;10.27;;
5042;SDS011;2540;50.928;6.856;2023-12-20T00:08:12;18.60;;;10.07;;
5042;SDS011;2540;50.928;6.856;2023-12-20T00:10:37;23.27;;;11.30;;
5042;SDS011;2540;50.928;6.856;2023-12-20T00:13:03;17.97;;;10.20;;
5042;SDS011;2540;50.928;6.856;2023-12-20T00:15:28;23.43;;;11.20;;
5042;SDS011;2540;50.928;6.856;2023-12-20T00:17:53;22.53;;;11.43;;
5042;SDS011;2540;50.928;6.856;2023-12-20T00:20:19;17.67;;;10.37;;
5042;SDS011;2540;50.928;6.856;2023-12-20T00:22:44;19.67;;;11.07;;
5042;SDS011;2540;50.928;6.856;2023-12-20T00:27:40;22.27;;;10.57;;
5042;SDS011;2540;50.928;6.856;2023-12-20T00:30:05;16.73;;;10.10;;
5042;SDS011;2540;50.928;6.856;2023-12-20T00:32:31;20.47;;;11.03;;
5042;SDS011;2540;50.928;6.856;2023-12-20T00:34:56;26.17;;;12.23;;
5042;SDS011;2540;50.928;6.856;2023-12-20T00:37:22;19.20;;;10.17;;
5042;SDS011;2540;50.928;6.856;2023-12-20T00:39:47;17.97;;;10.10;;
5042;SDS011;2540;50.928;6.856;2023-12-20T00:42:13;17.20;;;8.47;;
5042;SDS011;2540;50.928;6.856;2023-12-20T00:44:38;21.43;;;9.20;;
5042;SDS011;2540;50.928;6.856;2023-12-20T00:47:03;20.30;;;9.60;;
5042;SDS011;2540;50.928;6.856;2023-12-20T00:49:29;19.50;;;9.10;;
5042;SDS011;2540;50.928;6.856;2023-12-20T00:51:54;18.30;;;9.20;;
5042;SDS011;2540;50.928;6.856;2023-12-20T00:54:19;17.77;;;8.80;;
5042;SDS011;2540;50.928;6.856;2023-12-20T00:56:45;17.53;;;8.90;;
5042;SDS011;2540;50.928;6.856;2023-12-20T00:59:10;23.23;;;9.47;;
5042;SDS011;2540;50.928;6.856;2023-12-20T01:01:35;21.33;;;9.77;;
5042;SDS011;2540;50.928;6.856;2023-12-20T01:04:01;23.37;;;9.13;;
5042;SDS011;2540;50.928;6.856;2023-12-20T01:06:26;16.77;;;8.90;;
5042;SDS011;2540;50.928;6.856;2023-12-20T01:08:51;16.67;;;9.00;;
5042;SDS011;2540;50.928;6.856;2023-12-20T01:11:17;17.50;;;8.30;;
5042;SDS011;2540;50.928;6.856;2023-12-20T01:13:42;15.60;;;7.73;;
5042;SDS011;2540;50.928;6.856;2023-12-20T01:16:09;16.17;;;7.60;;
5042;SDS011;2540;50.928;6.856;2023-12-20T01:18:35;18.10;;;9.20;;
5042;SDS011;2540;50.928;6.856;2023-12-20T01:21:01;13.20;;;7.80;;
5042;SDS011;2540;50.928;6.856;2023-12-20T01:23:29;23.70;;;9.17;;
5042;SDS011;2540;50.928;6.856;2023-12-20T01:25:55;20.87;;;8.80;;
5042;SDS011;2540;50.928;6.856;2023-12-20T01:28:20;24.03;;;10.10;;
5042;SDS011;2540;50.928;6.856;2023-12-20T01:30:46;24.93;;;10.07;;
5042;SDS011;2540;50.928;6.856;2023-12-20T01:33:11;23.23;;;11.27;;
5042;SDS011;2540;50.928;6.856;2023-12-20T01:35:36;28.37;;;10.90;;
5042;SDS011;2540;50.928;6.856;2023-12-20T01:38:02;26.77;;;12.00;;
5042;SDS011;2540;50.928;6.856;2023-12-20T01:40:27;25.63;;;10.47;;
5042;SDS011;2540;50.928;6.856;2023-12-20T01:42:59;29.33;;;11.57;;
5042;SDS011;2540;50.928;6.856;2023-12-20T01:45:26;28.23;;;12.33;;
5042;SDS011;2540;50.928;6.856;2023-12-20T01:47:51;27.60;;;13.33;;
5042;SDS011;2540;50.928;6.856;2023-12-20T01:50:17;27.03;;;13.47;;
5042;SDS011;2540;50.928;6.856;2023-12-20T01:52:42;40.30;;;13.43;;
5042;SDS011;2540;50.928;6.856;2023-12-20T01:55:08;28.63;;;13.57;;
5042;SDS011;2540;50.928;6.856;2023-12-20T01:57:38;23.37;;;11.43;;
5042;SDS011;2540;50.928;6.856;2023-12-20T02:00:05;24.23;;;9.73;;
5042;SDS011;2540;50.928;6.856;2023-12-20T02:02:31;30.97;;;11.13;;
5042;SDS011;2540;50.928;6.856;2023-12-20T02:04:56;16.80;;;8.77;;
5042;SDS011;2540;50.928;6.856;2023-12-20T02:07:21;16.80;;;8.50;;
5042;SDS011;2540;50.928;6.856;2023-12-20T02:09:47;15.77;;;8.17;;
5042;SDS011;2540;50.928;6.856;2023-12-20T02:12:12;24.57;;;7.00;;
5042;SDS011;2540;50.928;6.856;2023-12-20T02:14:38;19.87;;;7.03;;
5042;SDS011;2540;50.928;6.856;2023-12-20T02:17:03;21.30;;;6.57;;
5042;SDS011;2540;50.928;6.856;2023-12-20T02:19:29;23.10;;;7.20;;
5042;SDS011;2540;50.928;6.856;2023-12-20T02:22:10;20.57;;;6.63;;
5042;SDS011;2540;50.928;6.856;2023-12-20T02:24:35;21.83;;;5.50;;
5042;SDS011;2540;50.928;6.856;2023-12-20T02:27:01;11.60;;;4.60;;
5042;SDS011;2540;50.928;6.856;2023-12-20T02:29:26;13.87;;;4.70;;
5042;SDS011;2540;50.928;6.856;2023-12-20T02:31:52;15.23;;;4.23;;
5042;SDS011;2540;50.928;6.856;2023-12-20T02:34:17;20.07;;;3.93;;
5042;SDS011;2540;50.928;6.856;2023-12-20T02:36:42;7.93;;;3.73;;
5042;SDS011;2540;50.928;6.856;2023-12-20T02:39:08;13.83;;;4.00;;
5042;SDS011;2540;50.928;6.856;2023-12-20T02:41:33;18.07;;;4.37;;
5042;SDS011;2540;50.928;6.856;2023-12-20T02:43:58;18.03;;;4.90;;
5042;SDS011;2540;50.928;6.856;2023-12-20T02:46:24;13.50;;;4.23;;
5042;SDS011;2540;50.928;6.856;2023-12-20T02:48:49;8.97;;;4.60;;
5042;SDS011;2540;50.928;6.856;2023-12-20T02:51:14;14.63;;;4.67;;
5042;SDS011;2540;50.928;6.856;2023-12-20T02:53:40;12.87;;;3.90;;
5042;SDS011;2540;50.928;6.856;2023-12-20T02:56:05;11.80;;;3.87;;
5042;SDS011;2540;50.928;6.856;2023-12-20T02:58:31;10.90;;;2.90;;
5042;SDS011;2540;50.928;6.856;2023-12-20T03:00:56;28.23;;;4.73;;
5042;SDS011;2540;50.928;6.856;2023-12-20T03:03:21;16.63;;;3.27;;
5042;SDS011;2540;50.928;6.856;2023-12-20T03:05:47;11.13;;;3.23;;
5042;SDS011;2540;50.928;6.856;2023-12-20T03:08:12;14.13;;;2.97;;
5042;SDS011;2540;50.928;6.856;2023-12-20T03:10:37;32.30;;;2.57;;
5042;SDS011;2540;50.928;6.856;2023-12-20T03:13:03;8.67;;;2.70;;
5042;SDS011;2540;50.928;6.856;2023-12-20T03:15:28;10.70;;;2.40;;
5042;SDS011;2540;50.928;6.856;2023-12-20T03:17:53;12.00;;;2.60;;
5042;SDS011;2540;50.928;6.856;2023-12-20T03:20:19;8.97;;;2.10;;
5042;SDS011;2540;50.928;6.856;2023-12-20T03:22:44;28.90;;;2.83;;
5042;SDS011;2540;50.928;6.856;2023-12-20T03:25:09;8.40;;;2.93;;
5042;SDS011;2540;50.928;6.856;2023-12-20T03:27:36;13.33;;;3.33;;
5042;SDS011;2540;50.928;6.856;2023-12-20T03:30:03;21.13;;;3.97;;
5042;SDS011;2540;50.928;6.856;2023-12-20T03:32:29;12.40;;;2.20;;
5042;SDS011;2540;50.928;6.856;2023-12-20T03:34:54;7.80;;;2.40;;
5042;SDS011;2540;50.928;6.856;2023-12-20T03:37:21;7.53;;;2.63;;
5042;SDS011;2540;50.928;6.856;2023-12-20T03:39:46;16.27;;;2.53;;
5042;SDS011;2540;50.928;6.856;2023-12-20T03:42:12;13.27;;;3.43;;
5042;SDS011;2540;50.928;6.856;2023-12-20T03:44:38;11.70;;;2.93;;
5042;SDS011;2540;50.928;6.856;2023-12-20T03:47:05;7.80;;;2.70;;
5042;SDS011;2540;50.928;6.856;2023-12-20T03:49:30;10.33;;;2.50;;
5042;SDS011;2540;50.928;6.856;2023-12-20T03:51:55;14.37;;;2.90;;
5042;SDS011;2540;50.928;6.856;2023-12-20T03:54:21;16.57;;;2.70;;
5042;SDS011;2540;50.928;6.856;2023-12-20T03:56:46;28.43;;;3.07;;
5042;SDS011;2540;50.928;6.856;2023-12-20T03:59:11;7.00;;;2.70;;
5042;SDS011;2540;50.928;6.856;2023-12-20T04:01:36;22.77;;;3.30;;
5042;SDS011;2540;50.928;6.856;2023-12-20T04:04:02;14.90;;;2.67;;
5042;SDS011;2540;50.928;6.856;2023-12-20T04:06:27;10.90;;;4.40;;
5042;SDS011;2540;50.928;6.856;2023-12-20T04:08:53;11.77;;;3.87;;
5042;SDS011;2540;50.928;6.856;2023-12-20T04:11:18;19.13;;;3.13;;
5042;SDS011;2540;50.928;6.856;2023-12-20T04:13:43;9.20;;;3.53;;
5042;SDS011;2540;50.928;6.856;2023-12-20T04:16:09;15.30;;;3.60;;
5042;SDS011;2540;50.928;6.856;2023-12-20T04:18:34;12.63;;;3.80;;
5042;SDS011;2540;50.928;6.856;2023-12-20T04:20:59;10.90;;;3.60;;
5042;SDS011;2540;50.928;6.856;2023-12-20T04:23:25;7.83;;;3.17;;
5042;SDS011;2540;50.928;6.856;2023-12-20T04:25:50;9.10;;;3.20;;
5042;SDS011;2540;50.928;6.856;2023-12-20T04:28:15;15.83;;;3.77;;
5042;SDS011;2540;50.928;6.856;2023-12-20T04:30:41;15.13;;;4.40;;
5042;SDS011;2540;50.928;6.856;2023-12-20T04:33:07;11.60;;;3.30;;
5042;SDS011;2540;50.928;6.856;2023-12-20T04:35:32;17.80;;;3.87;;
5042;SDS011;2540;50.928;6.856;2023-12-20T04:37:57;19.03;;;4.00;;
5042;SDS011;2540;50.928;6.856;2023-12-20T04:40:22;9.53;;;3.67;;
5042;SDS011;2540;50.928;6.856;2023-12-20T04:42:48;16.63;;;3.83;;
5042;SDS011;2540;50.928;6.856;2023-12-20T04:45:13;19.23;;;3.60;;
5042;SDS011;2540;50.928;6.856;2023-12-20T04:47:41;13.50;;;4.40;;
5042;SDS011;2540;50.928;6.856;2023-12-20T04:50:07;12.47;;;3.97;;
5042;SDS011;2540;50.928;6.856;2023-12-20T04:52:32;14.40;;;4.33;;
5042;SDS011;2540;50.928;6.856;2023-12-20T04:54:58;12.57;;;4.00;;
5042;SDS011;2540;50.928;6.856;2023-12-20T04:57:24;22.33;;;4.60;;
5042;SDS011;2540;50.928;6.856;2023-12-20T04:59:49;16.57;;;3.87;;
5042;SDS011;2540;50.928;6.856;2023-12-20T05:02:15;18.73;;;4.23;;
5042;SDS011;2540;50.928;6.856;2023-12-20T05:04:40;11.87;;;4.23;;
5042;SDS011;2540;50.928;6.856;2023-12-20T05:07:06;20.13;;;5.70;;
5042;SDS011;2540;50.928;6.856;2023-12-20T05:09:31;20.37;;;5.93;;
5042;SDS011;2540;50.928;6.856;2023-12-20T05:11:57;25.60;;;5.10;;
5042;SDS011;2540;50.928;6.856;2023-12-20T05:14:22;11.60;;;5.53;;
5042;SDS011;2540;50.928;6.856;2023-12-20T05:16:47;13.20;;;4.57;;
5042;SDS011;2540;50.928;6.856;2023-12-20T05:19:12;20.97;;;5.70;;
5042;SDS011;2540;50.928;6.856;2023-12-20T05:21:39;20.57;;;6.17;;
5042;SDS011;2540;50.928;6.856;2023-12-20T05:24:04;18.60;;;5.60;;
5042;SDS011;2540;50.928;6.856;2023-12-20T05:26:30;30.67;;;4.37;;
5042;SDS011;2540;50.928;6.856;2023-12-20T05:28:55;22.57;;;5.10;;
5042;SDS011;2540;50.928;6.856;2023-12-20T05:31:20;20.17;;;4.27;;
5042;SDS011;2540;50.928;6.856;2023-12-20T05:33:46;23.27;;;5.07;;
5042;SDS011;2540;50.928;6.856;2023-12-20T05:36:11;24.00;;;4.30;;
5042;SDS011;2540;50.928;6.856;2023-12-20T05:38:38;17.27;;;4.40;;
5042;SDS011;2540;50.928;6.856;2023-12-20T05:41:04;17.63;;;4.90;;
5042;SDS011;2540;50.928;6.856;2023-12-20T05:43:29;15.40;;;5.13;;
5042;SDS011;2540;50.928;6.856;2023-12-20T05:45:54;15.77;;;4.13;;
5042;SDS011;2540;50.928;6.856;2023-12-20T05:48:20;14.20;;;4.90;;
5042;SDS011;2540;50.928;6.856;2023-12-20T05:50:45;19.70;;;5.20;;
5042;SDS011;2540;50.928;6.856;2023-12-20T05:53:10;12.60;;;3.80;;
5042;SDS011;2540;50.928;6.856;2023-12-20T05:55:36;16.83;;;4.67;;
5042;SDS011;2540;50.928;6.856;2023-12-20T05:58:01;9.03;;;3.40;;
5042;SDS011;2540;50.928;6.856;2023-12-20T06:00:26;14.13;;;4.10;;
5042;SDS011;2540;50.928;6.856;2023-12-20T06:02:52;20.80;;;3.57;;
5042;SDS011;2540;50.928;6.856;2023-12-20T06:05:17;10.57;;;3.73;;
5042;SDS011;2540;50.928;6.856;2023-12-20T06:07:42;13.67;;;4.27;;
5042;SDS011;2540;50.928;6.856;2023-12-20T06:10:09;16.03;;;4.27;;
5042;SDS011;2540;50.928;6.856;2023-12-20T06:12:35;19.20;;;4.87;;
5042;SDS011;2540;50.928;6.856;2023-12-20T06:15:01;15.47;;;4.20;;
5042;SDS011;2540;50.928;6.856;2023-12-20T06:17:27;16.43;;;4.03;;
5042;SDS011;2540;50.928;6.856;2023-12-20T06:19:55;30.07;;;4.40;;
5042;SDS011;2540;50.928;6.856;2023-12-20T06:22:20;17.13;;;5.07;;
5042;SDS011;2540;50.928;6.856;2023-12-20T06:24:45;9.10;;;4.03;;
5042;SDS011;2540;50.928;6.856;2023-12-20T06:27:11;14.93;;;4.47;;
5042;SDS011;2540;50.928;6.856;2023-12-20T06:29:38;28.30;;;6.40;;
5042;SDS011;2540;50.928;6.856;2023-12-20T06:32:05;21.43;;;4.00;;
5042;SDS011;2540;50.928;6.856;2023-12-20T06:34:31;23.87;;;3.50;;
5042;SDS011;2540;50.928;6.856;2023-12-20T06:36:56;13.80;;;5.50;;
5042;SDS011;2540;50.928;6.856;2023-12-20T06:39:21;16.53;;;4.87;;
5042;SDS011;2540;50.928;6.856;2023-12-20T06:41:46;17.70;;;3.90;;
5042;SDS011;2540;50.928;6.856;2023-12-20T06:44:12;12.37;;;4.10;;
5042;SDS011;2540;50.928;6.856;2023-12-20T06:46:37;13.63;;;3.53;;
5042;SDS011;2540;50.928;6.856;2023-12-20T06:49:02;16.17;;;3.80;;
5042;SDS011;2540;50.928;6.856;2023-12-20T06:51:28;14.60;;;3.20;;
5042;SDS011;2540;50.928;6.856;2023-12-20T06:53:53;18.60;;;4.07;;
5042;SDS011;2540;50.928;6.856;2023-12-20T06:56:19;11.03;;;3.17;;
5042;SDS011;2540;50.928;6.856;2023-12-20T06:58:44;13.07;;;3.20;;
5042;SDS011;2540;50.928;6.856;2023-12-20T07:01:13;11.20;;;3.50;;
5042;SDS011;2540;50.928;6.856;2023-12-20T07:03:39;19.27;;;3.57;;
5042;SDS011;2540;50.928;6.856;2023-12-20T07:06:07;14.80;;;3.80;;
5042;SDS011;2540;50.928;6.856;2023-12-20T07:08:33;18.93;;;4.07;;
5042;SDS011;2540;50.928;6.856;2023-12-20T07:10:58;18.93;;;3.43;;
5042;SDS011;2540;50.928;6.856;2023-12-20T07:13:23;13.10;;;3.57;;
5042;SDS011;2540;50.928;6.856;2023-12-20T07:15:49;11.80;;;3.80;;
5042;SDS011;2540;50.928;6.856;2023-12-20T07:18:15;9.97;;;3.37;;
5042;SDS011;2540;50.928;6.856;2023-12-20T07:20:40;15.93;;;4.40;;
5042;SDS011;2540;50.928;6.856;2023-12-20T07:23:05;10.30;;;4.10;;
5042;SDS011;2540;50.928;6.856;2023-12-20T07:25:31;23.27;;;4.53;;
5042;SDS011;2540;50.928;6.856;2023-12-20T07:27:59;27.10;;;4.10;;
5042;SDS011;2540;50.928;6.856;2023-12-20T07:30:24;10.30;;;3.83;;
5042;SDS011;2540;50.928;6.856;2023-12-20T07:32:49;10.00;;;3.50;;
5042;SDS011;2540;50.928;6.856;2023-12-20T07:35:15;13.70;;;3.90;;
5042;SDS011;2540;50.928;6.856;2023-12-20T07:37:41;15.90;;;4.03;;
5042;SDS011;2540;50.928;6.856;2023-12-20T07:40:06;12.90;;;4.03;;
5042;SDS011;2540;50.928;6.856;2023-12-20T07:42:32;14.30;;;3.70;;
5042;SDS011;2540;50.928;6.856;2023-12-20T07:44:58;11.87;;;4.10;;
5042;SDS011;2540;50.928;6.856;2023-12-20T07:47:23;29.93;;;4.23;;
5042;SDS011;2540;50.928;6.856;2023-12-20T07:49:50;19.43;;;4.97;;
5042;SDS011;2540;50.928;6.856;2023-12-20T07:52:16;17.20;;;4.40;;
5042;SDS011;2540;50.928;6.856;2023-12-20T07:54:42;9.03;;;3.63;;
5042;SDS011;2540;50.928;6.856;2023-12-20T07:57:08;20.67;;;4.47;;
5042;SDS011;2540;50.928;6.856;2023-12-20T07:59:33;24.03;;;3.83;;
5042;SDS011;2540;50.928;6.856;2023-12-20T08:01:58;12.53;;;3.40;;
5042;SDS011;2540;50.928;6.856;2023-12-20T08:04:24;16.17;;;4.30;;
5042;SDS011;2540;50.928;6.856;2023-12-20T08:06:50;22.47;;;3.87;;
5042;SDS011;2540;50.928;6.856;2023-12-20T08:09:15;15.07;;;3.63;;
5042;SDS011;2540;50.928;6.856;2023-12-20T08:11:44;13.43;;;3.47;;
5042;SDS011;2540;50.928;6.856;2023-12-20T08:14:12;20.70;;;3.70;;
5042;SDS011;2540;50.928;6.856;2023-12-20T08:16:37;9.80;;;3.10;;
5042;SDS011;2540;50.928;6.856;2023-12-20T08:19:03;21.50;;;4.87;;
5042;SDS011;2540;50.928;6.856;2023-12-20T08:21:28;13.87;;;3.50;;
5042;SDS011;2540;50.928;6.856;2023-12-20T08:23:53;21.97;;;4.17;;
5042;SDS011;2540;50.928;6.856;2023-12-20T08:26:20;23.03;;;4.00;;
5042;SDS011;2540;50.928;6.856;2023-12-20T08:28:47;13.20;;;4.10;;
5042;SDS011;2540;50.928;6.856;2023-12-20T08:31:16;13.73;;;3.33;;
5042;SDS011;2540;50.928;6.856;2023-12-20T08:33:45;13.93;;;3.47;;
5042;SDS011;2540;50.928;6.856;2023-12-20T08:36:12;13.93;;;3.83;;
5042;SDS011;2540;50.928;6.856;2023-12-20T08:38:38;11.20;;;3.17;;
5042;SDS011;2540;50.928;6.856;2023-12-20T08:41:03;15.17;;;3.07;;
5042;SDS011;2540;50.928;6.856;2023-12-20T08:43:32;16.67;;;3.27;;
5042;SDS011;2540;50.928;6.856;2023-12-20T08:45:58;15.10;;;3.63;;
5042;SDS011;2540;50.928;6.856;2023-12-20T08:48:24;13.27;;;3.47;;
5042;SDS011;2540;50.928;6.856;2023-12-20T08:50:49;23.37;;;3.97;;
5042;SDS011;2540;50.928;6.856;2023-12-20T08:53:16;18.20;;;3.33;;
5042;SDS011;2540;50.928;6.856;2023-12-20T08:55:45;12.93;;;3.63;;
5042;SDS011;2540;50.928;6.856;2023-12-20T08:58:10;8.70;;;2.90;;
5042;SDS011;2540;50.928;6.856;2023-12-20T09:00:36;12.17;;;3.30;;
5042;SDS011;2540;50.928;6.856;2023-12-20T09:03:01;16.00;;;3.60;;
5042;SDS011;2540;50.928;6.856;2023-12-20T09:05:27;25.20;;;3.30;;
5042;SDS011;2540;50.928;6.856;2023-12-20T09:07:53;13.30;;;3.30;;
5042;SDS011;2540;50.928;6.856;2023-12-20T09:10:18;15.13;;;2.83;;
5042;SDS011;2540;50.928;6.856;2023-12-20T09:12:48;23.93;;;3.30;;
5042;SDS011;2540;50.928;6.856;2023-12-20T09:15:14;14.07;;;3.60;;
5042;SDS011;2540;50.928;6.856;2023-12-20T09:17:40;18.43;;;3.60;;
5042;SDS011;2540;50.928;6.856;2023-12-20T09:20:06;20.90;;;3.57;;
5042;SDS011;2540;50.928;6.856;2023-12-20T09:22:33;13.43;;;3.23;;
5042;SDS011;2540;50.928;6.856;2023-12-20T09:24:58;14.10;;;3.50;;
5042;SDS011;2540;50.928;6.856;2023-12-20T09:27:24;18.40;;;3.37;;
5042;SDS011;2540;50.928;6.856;2023-12-20T09:29:49;9.17;;;2.90;;
5042;SDS011;2540;50.928;6.856;2023-12-20T09:32:14;8.97;;;2.50;;
5042;SDS011;2540;50.928;6.856;2023-12-20T09:34:40;13.97;;;3.17;;
5042;SDS011;2540;50.928;6.856;2023-12-20T09:37:06;13.00;;;4.60;;
5042;SDS011;2540;50.928;6.856;2023-12-20T09:39:32;14.97;;;3.07;;
5042;SDS011;2540;50.928;6.856;2023-12-20T09:42:07;11.57;;;3.20;;
5042;SDS011;2540;50.928;6.856;2023-12-20T09:44:33;9.70;;;2.80;;
5042;SDS011;2540;50.928;6.856;2023-12-20T09:47:02;6.00;;;2.40;;
5042;SDS011;2540;50.928;6.856;2023-12-20T09:49:28;20.87;;;4.73;;
5042;SDS011;2540;50.928;6.856;2023-12-20T09:51:55;16.03;;;3.47;;
5042;SDS011;2540;50.928;6.856;2023-12-20T09:54:21;13.37;;;2.83;;
5042;SDS011;2540;50.928;6.856;2023-12-20T09:56:47;15.73;;;2.93;;
5042;SDS011;2540;50.928;6.856;2023-12-20T09:59:13;9.00;;;3.20;;
5042;SDS011;2540;50.928;6.856;2023-12-20T10:01:40;14.43;;;3.30;;
5042;SDS011;2540;50.928;6.856;2023-12-20T10:04:06;17.40;;;3.20;;
5042;SDS011;2540;50.928;6.856;2023-12-20T10:06:34;9.43;;;2.97;;
5042;SDS011;2540;50.928;6.856;2023-12-20T10:09:02;8.93;;;2.43;;
5042;SDS011;2540;50.928;6.856;2023-12-20T10:11:27;18.63;;;3.70;;
5042;SDS011;2540;50.928;6.856;2023-12-20T10:13:58;25.57;;;2.90;;
5042;SDS011;2540;50.928;6.856;2023-12-20T10:16:24;11.70;;;3.30;;
5042;SDS011;2540;50.928;6.856;2023-12-20T10:18:50;11.13;;;2.70;;
5042;SDS011;2540;50.928;6.856;2023-12-20T10:21:18;7.33;;;2.40;;
5042;SDS011;2540;50.928;6.856;2023-12-20T10:23:43;10.23;;;2.33;;
5042;SDS011;2540;50.928;6.856;2023-12-20T10:26:08;13.73;;;2.83;;
5042;SDS011;2540;50.928;6.856;2023-12-20T10:28:34;14.83;;;2.63;;
5042;SDS011;2540;50.928;6.856;2023-12-20T10:31:00;9.20;;;2.67;;
5042;SDS011;2540;50.928;6.856;2023-12-20T10:33:26;12.63;;;2.43;;
5042;SDS011;2540;50.928;6.856;2023-12-20T10:35:55;10.10;;;3.33;;
5042;SDS011;2540;50.928;6.856;2023-12-20T10:38:20;6.00;;;1.87;;
5042;SDS011;2540;50.928;6.856;2023-12-20T10:40:46;10.93;;;2.70;;
5042;SDS011;2540;50.928;6.856;2023-12-20T10:43:12;14.97;;;2.43;;
5042;SDS011;2540;50.928;6.856;2023-12-20T10:45:38;19.50;;;2.40;;
5042;SDS011;2540;50.928;6.856;2023-12-20T10:48:03;12.90;;;2.70;;
5042;SDS011;2540;50.928;6.856;2023-12-20T10:50:30;7.23;;;2.80;;
5042;SDS011;2540;50.928;6.856;2023-12-20T10:52:56;13.33;;;2.83;;
5042;SDS011;2540;50.928;6.856;2023-12-20T10:55:22;6.43;;;2.13;;
5042;SDS011;2540;50.928;6.856;2023-12-20T10:57:49;8.83;;;2.30;;
5042;SDS011;2540;50.928;6.856;2023-12-20T11:00:16;12.17;;;3.03;;
5042;SDS011;2540;50.928;6.856;2023-12-20T11:02:42;12.13;;;2.50;;
5042;SDS011;2540;50.928;6.856;2023-12-20T11:08:28;7.60;;;2.60;;
5042;SDS011;2540;50.928;6.856;2023-12-20T11:13:53;11.40;;;2.23;;
5042;SDS011;2540;50.928;6.856;2023-12-20T11:16:20;17.23;;;2.60;;
5042;SDS011;2540;50.928;6.856;2023-12-20T11:18:46;8.33;;;2.00;;
5042;SDS011;2540;50.928;6.856;2023-12-20T11:21:12;16.40;;;2.67;;
5042;SDS011;2540;50.928;6.856;2023-12-20T11:23:39;11.60;;;2.13;;
5042;SDS011;2540;50.928;6.856;2023-12-20T11:26:07;9.03;;;2.30;;
5042;SDS011;2540;50.928;6.856;2023-12-20T11:28:32;7.80;;;1.93;;
5042;SDS011;2540;50.928;6.856;2023-12-20T11:30:58;8.73;;;2.13;;
5042;SDS011;2540;50.928;6.856;2023-12-20T11:33:38;17.17;;;3.23;;
5042;SDS011;2540;50.928;6.856;2023-12-20T11:36:12;11.30;;;2.50;;
5042;SDS011;2540;50.928;6.856;2023-12-20T11:38:39;13.40;;;2.30;;
5042;SDS011;2540;50.928;6.856;2023-12-20T11:41:18;10.80;;;2.53;;
5042;SDS011;2540;50.928;6.856;2023-12-20T11:43:44;14.90;;;1.90;;
5042;SDS011;2540;50.928;6.856;2023-12-20T11:46:09;7.80;;;2.10;;
5042;SDS011;2540;50.928;6.856;2023-12-20T11:48:35;5.87;;;2.27;;
5042;SDS011;2540;50.928;6.856;2023-12-20T11:51:02;15.43;;;2.53;;
5042;SDS011;2540;50.928;6.856;2023-12-20T11:53:28;8.33;;;2.57;;
5042;SDS011;2540;50.928;6.856;2023-12-20T11:55:55;11.37;;;3.00;;
5042;SDS011;2540;50.928;6.856;2023-12-20T11:58:21;9.07;;;2.80;;
5042;SDS011;2540;50.928;6.856;2023-12-20T12:00:48;13.80;;;2.43;;
5042;SDS011;2540;50.928;6.856;2023-12-20T12:03:14;9.67;;;2.10;;
5042;SDS011;2540;50.928;6.856;2023-12-20T12:05:40;16.50;;;2.40;;
5042;SDS011;2540;50.928;6.856;2023-12-20T12:08:06;8.53;;;2.37;;
5042;SDS011;2540;50.928;6.856;2023-12-20T12:10:32;13.50;;;2.97;;
5042;SDS011;2540;50.928;6.856;2023-12-20T12:12:58;10.80;;;2.70;;
5042;SDS011;2540;50.928;6.856;2023-12-20T12:15:23;16.70;;;3.27;;
5042;SDS011;2540;50.928;6.856;2023-12-20T12:17:55;8.70;;;1.83;;
5042;SDS011;2540;50.928;6.856;2023-12-20T12:20:21;14.67;;;1.90;;
5042;SDS011;2540;50.928;6.856;2023-12-20T12:22:57;12.20;;;2.60;;
5042;SDS011;2540;50.928;6.856;2023-12-20T12:25:24;11.40;;;2.50;;
5042;SDS011;2540;50.928;6.856;2023-12-20T12:27:50;8.70;;;2.63;;
5042;SDS011;2540;50.928;6.856;2023-12-20T12:30:16;12.93;;;3.03;;
5042;SDS011;2540;50.928;6.856;2023-12-20T12:32:43;12.60;;;2.53;;
5042;SDS011;2540;50.928;6.856;2023-12-20T12:35:09;14.50;;;2.90;;
5042;SDS011;2540;50.928;6.856;2023-12-20T12:37:35;6.30;;;2.33;;
5042;SDS011;2540;50.928;6.856;2023-12-20T12:40:06;13.27;;;2.37;;
5042;SDS011;2540;50.928;6.856;2023-12-20T12:42:35;18.10;;;3.00;;
5042;SDS011;2540;50.928;6.856;2023-12-20T12:45:00;6.00;;;2.60;;
5042;SDS011;2540;50.928;6.856;2023-12-20T12:47:25;25.53;;;2.70;;
5042;SDS011;2540;50.928;6.856;2023-12-20T12:49:51;19.50;;;2.93;;
5042;SDS011;2540;50.928;6.856;2023-12-20T12:52:18;20.33;;;3.20;;
5042;SDS011;2540;50.928;6.856;2023-12-20T12:54:43;14.30;;;2.87;;
5042;SDS011;2540;50.928;6.856;2023-12-20T12:57:10;14.67;;;3.30;;
5042;SDS011;2540;50.928;6.856;2023-12-20T12:59:35;9.63;;;3.27;;
5042;SDS011;2540;50.928;6.856;2023-12-20T13:02:01;12.33;;;2.80;;
5042;SDS011;2540;50.928;6.856;2023-12-20T13:04:26;9.70;;;3.27;;
5042;SDS011;2540;50.928;6.856;2023-12-20T13:06:52;23.93;;;3.10;;
5042;SDS011;2540;50.928;6.856;2023-12-20T13:09:17;25.20;;;3.30;;
5042;SDS011;2540;50.928;6.856;2023-12-20T13:11:44;16.27;;;3.10;;
5042;SDS011;2540;50.928;6.856;2023-12-20T13:14:09;9.50;;;2.73;;
5042;SDS011;2540;50.928;6.856;2023-12-20T13:16:39;8.53;;;2.50;;
5042;SDS011;2540;50.928;6.856;2023-12-20T13:19:04;10.60;;;2.77;;
5042;SDS011;2540;50.928;6.856;2023-12-20T13:21:30;9.30;;;3.03;;
5042;SDS011;2540;50.928;6.856;2023-12-20T13:23:55;25.40;;;3.50;;
5042;SDS011;2540;50.928;6.856;2023-12-20T13:26:21;13.43;;;3.53;;
5042;SDS011;2540;50.928;6.856;2023-12-20T13:28:46;10.97;;;2.40;;
5042;SDS011;2540;50.928;6.856;2023-12-20T13:31:11;9.23;;;3.40;;
5042;SDS011;2540;50.928;6.856;2023-12-20T13:33:37;15.23;;;3.23;;
5042;SDS011;2540;50.928;6.856;2023-12-20T13:36:02;13.43;;;2.57;;
5042;SDS011;2540;50.928;6.856;2023-12-20T13:38:29;12.87;;;2.90;;
5042;SDS011;2540;50.928;6.856;2023-12-20T13:40:54;11.77;;;3.17;;
5042;SDS011;2540;50.928;6.856;2023-12-20T13:43:20;13.07;;;3.33;;
5042;SDS011;2540;50.928;6.856;2023-12-20T13:45:47;15.83;;;3.87;;
5042;SDS011;2540;50.928;6.856;2023-12-20T13:48:12;12.80;;;3.03;;
5042;SDS011;2540;50.928;6.856;2023-12-20T13:50:38;9.27;;;3.00;;
5042;SDS011;2540;50.928;6.856;2023-12-20T13:53:03;12.73;;;3.57;;
5042;SDS011;2540;50.928;6.856;2023-12-20T13:55:29;9.00;;;2.77;;
5042;SDS011;2540;50.928;6.856;2023-12-20T13:57:55;11.87;;;3.03;;
5042;SDS011;2540;50.928;6.856;2023-12-20T14:00:21;12.30;;;3.20;;
5042;SDS011;2540;50.928;6.856;2023-12-20T14:02:47;9.87;;;4.03;;
5042;SDS011;2540;50.928;6.856;2023-12-20T14:05:13;14.10;;;3.30;;
5042;SDS011;2540;50.928;6.856;2023-12-20T14:07:41;16.50;;;3.40;;
5042;SDS011;2540;50.928;6.856;2023-12-20T14:10:09;10.50;;;2.70;;
5042;SDS011;2540;50.928;6.856;2023-12-20T14:12:36;8.70;;;2.90;;
5042;SDS011;2540;50.928;6.856;2023-12-20T14:15:03;11.53;;;3.20;;
5042;SDS011;2540;50.928;6.856;2023-12-20T14:17:28;14.97;;;2.60;;
5042;SDS011;2540;50.928;6.856;2023-12-20T14:19:54;10.80;;;3.10;;
5042;SDS011;2540;50.928;6.856;2023-12-20T14:22:19;8.63;;;2.90;;
5042;SDS011;2540;50.928;6.856;2023-12-20T14:24:45;6.80;;;2.40;;
5042;SDS011;2540;50.928;6.856;2023-12-20T14:27:10;7.37;;;2.53;;
5042;SDS011;2540;50.928;6.856;2023-12-20T14:29:36;9.20;;;2.43;;
5042;SDS011;2540;50.928;6.856;2023-12-20T14:32:02;6.77;;;2.70;;
5042;SDS011;2540;50.928;6.856;2023-12-20T14:34:29;4.60;;;2.23;;
5042;SDS011;2540;50.928;6.856;2023-12-20T14:36:54;9.20;;;2.80;;
5042;SDS011;2540;50.928;6.856;2023-12-20T14:39:20;10.40;;;3.90;;
5042;SDS011;2540;50.928;6.856;2023-12-20T14:41:45;6.17;;;2.43;;
5042;SDS011;2540;50.928;6.856;2023-12-20T14:44:11;8.33;;;2.40;;
5042;SDS011;2540;50.928;6.856;2023-12-20T14:46:36;11.50;;;2.97;;
5042;SDS011;2540;50.928;6.856;2023-12-20T14:49:02;4.90;;;2.20;;
5042;SDS011;2540;50.928;6.856;2023-12-20T14:51:28;17.97;;;2.90;;
5042;SDS011;2540;50.928;6.856;2023-12-20T14:53:53;8.53;;;2.77;;
5042;SDS011;2540;50.928;6.856;2023-12-20T14:56:19;9.47;;;3.17;;
5042;SDS011;2540;50.928;6.856;2023-12-20T14:58:45;12.87;;;2.90;;
5042;SDS011;2540;50.928;6.856;2023-12-20T15:01:10;6.27;;;2.53;;
5042;SDS011;2540;50.928;6.856;2023-12-20T15:03:36;6.50;;;2.07;;